YXL EDLP-EDLW
Flight info
| Callsign | YXL |
|---|---|
| Flight time | 0h 27m |
| Altitude | 5000 |
| Route | DOMEG4X DOMEG DOMEG2A |
| Aircraft | SR22/L-SDGRY/S |
Departure
| Time | 2026-05-06 10:05 |
|---|---|
| Airport | Paderborn Lippstadt Airport (EDLP) |
Arrival
| Time | 2026-05-06 10:33 |
|---|---|
| Airport | Dortmund Airport (EDLW) |
| Time | Latitude | Longitude | Altitude | Speed | Heading |
|---|---|---|---|---|---|
| 2026-05-06 09:52 | 51.60995 | 8.61562 | 704 ft | 0 kts | 312° |
| 2026-05-06 10:01 | 51.61003 | 8.61556 | 704 ft | 8 kts | 354° |
| 2026-05-06 10:02 | 51.60973 | 8.61410 | 705 ft | 15 kts | 234° |
| 2026-05-06 10:02 | 51.60965 | 8.61281 | 706 ft | 9 kts | 279° |
| 2026-05-06 10:02 | 51.60972 | 8.61229 | 702 ft | 6 kts | 284° |
| 2026-05-06 10:02 | 51.60988 | 8.61120 | 702 ft | 12 kts | 280° |
| 2026-05-06 10:03 | 51.60979 | 8.61057 | 705 ft | 6 kts | 238° |
| 2026-05-06 10:03 | 51.60910 | 8.60892 | 709 ft | 20 kts | 239° |
| 2026-05-06 10:03 | 51.60836 | 8.60710 | 710 ft | 22 kts | 238° |
| 2026-05-06 10:03 | 51.60755 | 8.60490 | 712 ft | 20 kts | 264° |
| 2026-05-06 10:04 | 51.60778 | 8.60385 | 714 ft | 8 kts | 316° |
| 2026-05-06 10:04 | 51.60871 | 8.60361 | 714 ft | 17 kts | 26° |
| 2026-05-06 10:04 | 51.60943 | 8.60488 | 714 ft | 24 kts | 56° |
| 2026-05-06 10:04 | 51.61057 | 8.60766 | 706 ft | 64 kts | 59° |
| 2026-05-06 10:05 | 51.61377 | 8.61547 | 805 ft | 97 kts | 52° |
| 2026-05-06 10:05 | 51.61905 | 8.62914 | 1096 ft | 118 kts | 53° |
| 2026-05-06 10:05 | 51.62349 | 8.64010 | 1612 ft | 114 kts | 56° |
| 2026-05-06 10:05 | 51.62633 | 8.64732 | 1939 ft | 117 kts | 56° |
| 2026-05-06 10:06 | 51.63078 | 8.65850 | 2432 ft | 118 kts | 57° |
| 2026-05-06 10:06 | 51.63559 | 8.66994 | 2845 ft | 127 kts | 54° |
| 2026-05-06 10:06 | 51.64048 | 8.68166 | 3368 ft | 126 kts | 54° |
| 2026-05-06 10:06 | 51.64538 | 8.69338 | 3859 ft | 126 kts | 54° |
| 2026-05-06 10:07 | 51.65032 | 8.70522 | 4317 ft | 128 kts | 55° |
| 2026-05-06 10:07 | 51.65704 | 8.71395 | 4757 ft | 125 kts | 12° |
| 2026-05-06 10:07 | 51.66587 | 8.71366 | 4994 ft | 139 kts | 339° |
| 2026-05-06 10:07 | 51.67593 | 8.70830 | 5014 ft | 164 kts | 339° |
| 2026-05-06 10:08 | 51.68724 | 8.70252 | 5011 ft | 180 kts | 340° |
| 2026-05-06 10:08 | 51.69944 | 8.69612 | 5013 ft | 186 kts | 336° |
| 2026-05-06 10:08 | 51.70997 | 8.68415 | 5008 ft | 187 kts | 312° |
| 2026-05-06 10:08 | 51.71643 | 8.66922 | 5011 ft | 186 kts | 293° |
| 2026-05-06 10:09 | 51.72009 | 8.64924 | 5008 ft | 186 kts | 282° |
| 2026-05-06 10:09 | 51.72315 | 8.62895 | 5008 ft | 187 kts | 282° |
| 2026-05-06 10:09 | 51.72598 | 8.60997 | 5008 ft | 187 kts | 282° |
| 2026-05-06 10:09 | 51.72903 | 8.58952 | 5011 ft | 188 kts | 282° |
| 2026-05-06 10:10 | 51.73206 | 8.56898 | 5010 ft | 188 kts | 281° |
| 2026-05-06 10:10 | 51.73516 | 8.54828 | 5021 ft | 192 kts | 283° |
| 2026-05-06 10:10 | 51.73863 | 8.52755 | 5004 ft | 190 kts | 284° |
| 2026-05-06 10:10 | 51.74132 | 8.50662 | 5011 ft | 190 kts | 282° |
| 2026-05-06 10:11 | 51.74430 | 8.48578 | 5003 ft | 192 kts | 284° |
| 2026-05-06 10:11 | 51.74702 | 8.46486 | 5008 ft | 188 kts | 280° |
| 2026-05-06 10:11 | 51.75081 | 8.44444 | 5000 ft | 193 kts | 284° |
| 2026-05-06 10:11 | 51.75375 | 8.42345 | 5005 ft | 191 kts | 282° |
| 2026-05-06 10:12 | 51.75677 | 8.40262 | 5004 ft | 189 kts | 282° |
| 2026-05-06 10:12 | 51.75977 | 8.38226 | 5007 ft | 188 kts | 282° |
| 2026-05-06 10:12 | 51.76279 | 8.36164 | 5005 ft | 187 kts | 282° |
| 2026-05-06 10:12 | 51.76578 | 8.34127 | 5004 ft | 186 kts | 282° |
| 2026-05-06 10:13 | 51.76721 | 8.32071 | 5006 ft | 185 kts | 265° |
| 2026-05-06 10:13 | 51.76559 | 8.30009 | 5006 ft | 186 kts | 263° |
| 2026-05-06 10:13 | 51.76409 | 8.27940 | 5007 ft | 185 kts | 263° |
| 2026-05-06 10:13 | 51.76255 | 8.25880 | 5007 ft | 185 kts | 264° |
| 2026-05-06 10:14 | 51.76096 | 8.23808 | 5009 ft | 187 kts | 264° |
| 2026-05-06 10:14 | 51.75936 | 8.21726 | 5009 ft | 187 kts | 264° |
| 2026-05-06 10:14 | 51.75779 | 8.19676 | 5010 ft | 186 kts | 263° |
| 2026-05-06 10:14 | 51.75621 | 8.17609 | 5010 ft | 185 kts | 263° |
| 2026-05-06 10:15 | 51.75462 | 8.15536 | 5011 ft | 186 kts | 263° |
| 2026-05-06 10:15 | 51.75303 | 8.13469 | 5013 ft | 185 kts | 263° |
| 2026-05-06 10:15 | 51.75144 | 8.11401 | 5013 ft | 185 kts | 263° |
| 2026-05-06 10:15 | 51.74983 | 8.09323 | 5013 ft | 187 kts | 263° |
| 2026-05-06 10:16 | 51.74821 | 8.07243 | 5010 ft | 187 kts | 263° |
| 2026-05-06 10:16 | 51.74660 | 8.05160 | 5013 ft | 186 kts | 263° |
| 2026-05-06 10:16 | 51.74499 | 8.03088 | 5014 ft | 186 kts | 263° |
| 2026-05-06 10:16 | 51.74336 | 8.01010 | 5016 ft | 187 kts | 263° |
| 2026-05-06 10:17 | 51.74176 | 7.98955 | 5018 ft | 186 kts | 263° |
| 2026-05-06 10:17 | 51.74014 | 7.96889 | 5015 ft | 186 kts | 263° |
| 2026-05-06 10:17 | 51.73850 | 7.94810 | 5018 ft | 187 kts | 263° |
| 2026-05-06 10:17 | 51.73687 | 7.92734 | 5018 ft | 186 kts | 263° |
| 2026-05-06 10:18 | 51.73524 | 7.90667 | 5015 ft | 186 kts | 263° |
| 2026-05-06 10:18 | 51.73360 | 7.88600 | 5014 ft | 186 kts | 263° |
| 2026-05-06 10:18 | 51.73197 | 7.86536 | 5015 ft | 185 kts | 263° |
| 2026-05-06 10:18 | 51.73032 | 7.84476 | 5016 ft | 186 kts | 263° |
| 2026-05-06 10:19 | 51.72867 | 7.82396 | 5020 ft | 187 kts | 263° |
| 2026-05-06 10:19 | 51.72701 | 7.80310 | 5021 ft | 188 kts | 263° |
| 2026-05-06 10:19 | 51.72533 | 7.78224 | 5020 ft | 187 kts | 263° |
| 2026-05-06 10:19 | 51.72366 | 7.76139 | 5016 ft | 188 kts | 263° |
| 2026-05-06 10:20 | 51.72198 | 7.74043 | 5017 ft | 189 kts | 263° |
| 2026-05-06 10:20 | 51.72028 | 7.71940 | 5015 ft | 189 kts | 263° |
| 2026-05-06 10:20 | 51.71860 | 7.69865 | 5018 ft | 190 kts | 263° |
| 2026-05-06 10:20 | 51.71690 | 7.67757 | 5019 ft | 190 kts | 263° |
| 2026-05-06 10:21 | 51.71518 | 7.65648 | 5018 ft | 189 kts | 263° |
| 2026-05-06 10:21 | 51.71326 | 7.63549 | 5015 ft | 189 kts | 257° |
| 2026-05-06 10:21 | 51.70740 | 7.61661 | 5000 ft | 190 kts | 234° |
| 2026-05-06 10:21 | 51.69760 | 7.60249 | 4996 ft | 191 kts | 211° |
| 2026-05-06 10:22 | 51.68510 | 7.59531 | 4993 ft | 192 kts | 189° |
| 2026-05-06 10:22 | 51.67179 | 7.59608 | 4989 ft | 192 kts | 171° |
| 2026-05-06 10:22 | 51.65859 | 7.59931 | 4990 ft | 192 kts | 172° |
| 2026-05-06 10:22 | 51.64534 | 7.60248 | 4991 ft | 192 kts | 172° |
| 2026-05-06 10:23 | 51.63212 | 7.60564 | 4991 ft | 192 kts | 172° |
| 2026-05-06 10:23 | 51.61888 | 7.60878 | 4992 ft | 192 kts | 172° |
| 2026-05-06 10:23 | 51.60562 | 7.61195 | 4992 ft | 192 kts | 172° |
| 2026-05-06 10:23 | 51.59257 | 7.61506 | 4993 ft | 192 kts | 172° |
| 2026-05-06 10:24 | 51.57931 | 7.61820 | 4966 ft | 194 kts | 172° |
| 2026-05-06 10:24 | 51.56574 | 7.62144 | 4813 ft | 199 kts | 172° |
| 2026-05-06 10:24 | 51.55199 | 7.62472 | 4668 ft | 200 kts | 172° |
| 2026-05-06 10:24 | 51.53817 | 7.62783 | 4514 ft | 199 kts | 175° |
| 2026-05-06 10:25 | 51.52455 | 7.62493 | 4350 ft | 199 kts | 198° |
| 2026-05-06 10:25 | 51.51244 | 7.61443 | 4189 ft | 199 kts | 219° |
| 2026-05-06 10:25 | 51.50172 | 7.60038 | 4036 ft | 199 kts | 218° |
| 2026-05-06 10:25 | 51.49091 | 7.58643 | 3882 ft | 199 kts | 219° |
| 2026-05-06 10:26 | 51.48013 | 7.57248 | 3730 ft | 199 kts | 219° |
| 2026-05-06 10:26 | 51.46937 | 7.55854 | 3576 ft | 199 kts | 219° |
| 2026-05-06 10:26 | 51.45861 | 7.54460 | 3425 ft | 199 kts | 219° |
| 2026-05-06 10:26 | 51.44784 | 7.53069 | 3273 ft | 198 kts | 219° |
| 2026-05-06 10:27 | 51.43724 | 7.51700 | 3114 ft | 199 kts | 219° |
| 2026-05-06 10:27 | 51.42648 | 7.50312 | 3001 ft | 196 kts | 219° |
| 2026-05-06 10:27 | 51.41601 | 7.48959 | 2992 ft | 192 kts | 219° |
| 2026-05-06 10:27 | 51.40672 | 7.47481 | 2976 ft | 188 kts | 240° |
| 2026-05-06 10:28 | 51.40350 | 7.45473 | 2981 ft | 187 kts | 267° |
| 2026-05-06 10:28 | 51.40615 | 7.43457 | 2966 ft | 187 kts | 294° |
| 2026-05-06 10:28 | 51.41435 | 7.41828 | 2832 ft | 192 kts | 323° |
| 2026-05-06 10:28 | 51.42658 | 7.40986 | 2698 ft | 193 kts | 351° |
| 2026-05-06 10:29 | 51.43987 | 7.41172 | 2565 ft | 193 kts | 19° |
| 2026-05-06 10:29 | 51.45090 | 7.42335 | 2493 ft | 190 kts | 46° |
| 2026-05-06 10:29 | 51.45792 | 7.44092 | 2490 ft | 186 kts | 60° |
| 2026-05-06 10:29 | 51.46433 | 7.45854 | 2490 ft | 184 kts | 59° |
| 2026-05-06 10:30 | 51.47066 | 7.47677 | 2299 ft | 191 kts | 60° |
| 2026-05-06 10:30 | 51.47730 | 7.49544 | 2041 ft | 194 kts | 58° |
| 2026-05-06 10:30 | 51.48380 | 7.51404 | 1774 ft | 181 kts | 60° |
| 2026-05-06 10:30 | 51.48962 | 7.53057 | 1537 ft | 162 kts | 57° |
| 2026-05-06 10:31 | 51.49495 | 7.54565 | 1315 ft | 148 kts | 58° |
| 2026-05-06 10:31 | 51.49979 | 7.55942 | 1105 ft | 136 kts | 59° |
| 2026-05-06 10:31 | 51.50428 | 7.57205 | 939 ft | 122 kts | 57° |
| 2026-05-06 10:31 | 51.50794 | 7.58279 | 807 ft | 101 kts | 60° |
| 2026-05-06 10:32 | 51.51115 | 7.59190 | 681 ft | 84 kts | 57° |
| 2026-05-06 10:32 | 51.51394 | 7.59990 | 551 ft | 85 kts | 54° |
| 2026-05-06 10:32 | 51.51680 | 7.60793 | 420 ft | 76 kts | 55° |
| 2026-05-06 10:32 | 51.51892 | 7.61387 | 413 ft | 50 kts | 61° |
| 2026-05-06 10:33 | 51.52042 | 7.61817 | 407 ft | 37 kts | 60° |
| 2026-05-06 10:33 | 51.52142 | 7.62102 | 406 ft | 25 kts | 62° |
| 2026-05-06 10:33 | 51.52179 | 7.62323 | 406 ft | 18 kts | 146° |
| 2026-05-06 10:33 | 51.52106 | 7.62386 | 405 ft | 6 kts | 148° |
| 2026-05-06 10:34 | 51.52101 | 7.62391 | 405 ft | 4 kts | 150° |
| 2026-05-06 10:34 | 51.52044 | 7.62364 | 405 ft | 14 kts | 238° |
| 2026-05-06 10:34 | 51.51933 | 7.62053 | 409 ft | 41 kts | 239° |
| 2026-05-06 10:34 | 51.51803 | 7.61680 | 413 ft | 35 kts | 242° |
| 2026-05-06 10:35 | 51.51698 | 7.61384 | 421 ft | 27 kts | 238° |
| 2026-05-06 10:35 | 51.51609 | 7.61131 | 424 ft | 29 kts | 237° |
| 2026-05-06 10:35 | 51.51507 | 7.61041 | 429 ft | 13 kts | 226° |
| 2026-05-06 10:35 | 51.51454 | 7.60893 | 431 ft | 20 kts | 242° |
| 2026-05-06 10:36 | 51.51392 | 7.60831 | 433 ft | 9 kts | 150° |
| 2026-05-06 10:36 | 51.51361 | 7.60890 | 433 ft | 4 kts | 140° |